M I D A S
Marine Information and Data Acquisition System
Tripno 1240 of the Zeeleeuw from 2007-03-27 08:20:43 to 2007-03-27 14:35:07
Back to CruiseResearch ActivitiesStationsMapUnderway DataData graphs

EquipmentUnitsComment
TimeDGPSUTC
LatitudeDGPSDM.mWGS84
LongitudeDGPSDM.mWGS84
HeadingGyrodeg 
SOGDGPSknotsSpeed over ground
COGDGPSdegCourse over ground
DepthEcho soundermeters200 kHz
Missing or incorrect values are displayed as -999
Navigation data collected by the RV Zeeleeuw from 2007-03-27 07:28:17 to 2007-03-27 14:44:08
Time Latitude Longitude Heading SOG COG Depth
2007-03-27 07:29:23 51°13.602 2°56.1 125.9 -999 301 -999
2007-03-27 07:30:23 51°13.602 2°56.099 125.5 -999 11 -999
2007-03-27 07:31:22 51°13.602 2°56.1 125.5 -999 104 -999
2007-03-27 07:32:23 51°13.603 2°56.1 125.5 -999 -999 -999
2007-03-27 07:33:23 51°13.603 2°56.1 125.9 -999 332 -999
2007-03-27 07:34:23 51°13.603 2°56.1 125.6 -999 157 -999
2007-03-27 07:35:23 51°13.603 2°56.099 125.5 -999 9 -999
2007-03-27 07:36:23 51°13.602 2°56.099 125.6 0.1 217 -999
2007-03-27 07:37:23 51°13.603 2°56.099 125.1 -999 214 -999
2007-03-27 07:38:23 51°13.603 2°56.099 125.5 -999 161 -999
2007-03-27 07:39:23 51°13.602 2°56.099 125.6 -999 209 -999
2007-03-27 07:40:23 51°13.602 2°56.099 125.7 -999 357 -999
2007-03-27 07:41:23 51°13.602 2°56.1 125.2 -999 139 -999
2007-03-27 07:42:22 51°13.602 2°56.1 125.3 -999 216 -999
2007-03-27 07:43:23 51°13.602 2°56.1 125.3 -999 71 -999
2007-03-27 07:44:22 51°13.602 2°56.1 125.5 0.1 211 -999
2007-03-27 07:45:23 51°13.602 2°56.1 125.6 -999 225 -999
2007-03-27 07:46:23 51°13.603 2°56.1 125.5 -999 242 -999
2007-03-27 07:47:22 51°13.603 2°56.1 125.9 -999 9 -999
2007-03-27 07:48:23 51°13.603 2°56.1 125.2 -999 225 -999
2007-03-27 07:49:22 51°13.603 2°56.1 125.2 -999 188 -999
2007-03-27 07:50:20 51°13.604 2°56.1 125.3 -999 203 7
2007-03-27 07:51:20 51°13.603 2°56.1 125.4 -999 267 7
2007-03-27 07:52:20 51°13.603 2°56.1 125.5 -999 283 7
2007-03-27 07:53:22 51°13.603 2°56.1 125.2 -999 228 7
2007-03-27 07:54:22 51°13.603 2°56.1 125.1 -999 213 7
2007-03-27 07:55:21 51°13.603 2°56.1 125.5 0.1 7 7
2007-03-27 07:56:21 51°13.602 2°56.101 124.8 -999 -999 -999
2007-03-27 07:57:20 51°13.602 2°56.1 124.9 -999 278 7
2007-03-27 07:58:23 51°13.602 2°56.101 124.9 -999 12 -999
2007-03-27 07:59:22 51°13.602 2°56.1 125 -999 358 6.9
2007-03-27 08:00:21 51°13.602 2°56.101 124.9 -999 236 6.9
2007-03-27 08:01:21 51°13.602 2°56.101 124.9 -999 350 6.9
2007-03-27 08:02:20 51°13.602 2°56.101 124.8 -999 -999 5.2
2007-03-27 08:03:20 51°13.602 2°56.101 124.8 -999 235 6.9
2007-03-27 08:04:19 51°13.602 2°56.101 124.8 -999 153 6.9
2007-03-27 08:05:20 51°13.602 2°56.101 124.9 -999 6 -999
2007-03-27 08:06:19 51°13.597 2°56.099 124.9 -999 222 6.9
2007-03-27 08:07:19 51°13.598 2°56.099 124.8 -999 238 6.9
2007-03-27 08:08:21 51°13.599 2°56.1 124.9 -999 207 6.9
2007-03-27 08:09:20 51°13.599 2°56.099 124.8 -999 216 6.9
2007-03-27 08:10:21 51°13.599 2°56.099 124.9 -999 326 -999
2007-03-27 08:11:23 51°13.602 2°56.1 124.9 -999 227 -999
2007-03-27 08:12:22 51°13.603 2°56.1 124.9 -999 207 -999
2007-03-27 08:13:22 51°13.6 2°56.099 125 -999 2 6.9
2007-03-27 08:14:22 51°13.602 2°56.1 124.9 -999 343 -999
2007-03-27 08:15:21 51°13.602 2°56.1 125.2 -999 57 6.9
2007-03-27 08:16:21 51°13.599 2°56.099 125.2 -999 215 6.8
2007-03-27 08:17:20 51°13.601 2°56.1 125.2 -999 357 6.9
2007-03-27 08:18:21 51°13.6 2°56.1 125.2 -999 122 6.8
2007-03-27 08:19:19 51°13.601 2°56.1 126.7 -999 219 6.8
2007-03-27 08:20:19 51°13.601 2°56.1 122.6 0.1 194 6.8
2007-03-27 08:21:19 51°13.604 2°56.092 114.5 1.3 293 7.2
2007-03-27 08:22:22 51°13.623 2°56.02 114.7 3.7 291 -999
2007-03-27 08:23:23 51°13.655 2°55.914 123.3 4.8 300 -999
2007-03-27 08:24:22 51°13.688 2°55.817 117.6 3.7 296 -999
2007-03-27 08:25:21 51°13.705 2°55.742 98.6 2.6 281 14.8
2007-03-27 08:26:19 51°13.709 2°55.713 65.2 0.5 314 14.1
2007-03-27 08:27:19 51°13.722 2°55.712 24.6 1.2 1 13.5
2007-03-27 08:28:19 51°13.761 2°55.69 337.6 4.1 333 13.1
2007-03-27 08:29:19 51°13.849 2°55.618 338.6 7.4 334 12.9
2007-03-27 08:30:19 51°13.971 2°55.528 340 8.5 335 12.9
2007-03-27 08:31:20 51°14.103 2°55.432 340.2 8.7 336 -999
2007-03-27 08:32:21 51°14.232 2°55.309 327.4 9.7 321 13
2007-03-27 08:33:19 51°14.351 2°55.089 312.1 12.5 307 12.5
2007-03-27 08:34:19 51°14.477 2°54.801 303.9 13.4 301 12.3
2007-03-27 08:35:19 51°14.583 2°54.493 299.7 13.1 298 12
2007-03-27 08:36:19 51°14.644 2°54.17 277.9 12.8 277 12.8
2007-03-27 08:37:20 51°14.668 2°53.829 278.1 12.7 277 12.3
2007-03-27 08:38:19 51°14.692 2°53.498 278.8 12.9 276 11.3
2007-03-27 08:39:19 51°14.719 2°53.156 280 13.1 277 10.9
2007-03-27 08:40:19 51°14.748 2°52.811 280.4 13.3 278 11.2
2007-03-27 08:41:19 51°14.777 2°52.464 279.8 13.2 278 11.4
2007-03-27 08:42:19 51°14.808 2°52.119 280.5 13.1 279 11.8
2007-03-27 08:43:19 51°14.839 2°51.775 280.1 13.1 279 12.3
2007-03-27 08:44:19 51°14.872 2°51.431 279.6 13.1 279 12.8
2007-03-27 08:45:19 51°14.941 2°51.099 293.6 13.3 291 13.4
2007-03-27 08:46:19 51°15.018 2°50.771 291.4 13.2 290 13.9
2007-03-27 08:47:19 51°15.091 2°50.441 290.7 13.1 291 14.1
2007-03-27 08:48:19 51°15.164 2°50.115 290.2 13 290 14.1
2007-03-27 08:49:19 51°15.234 2°49.787 290.5 13 289 14.3
2007-03-27 08:50:19 51°15.305 2°49.459 290.5 13 290 14.5
2007-03-27 08:51:19 51°15.377 2°49.134 290.5 13 290 14.6
2007-03-27 08:52:19 51°15.448 2°48.808 290.1 13 289 13.3
2007-03-27 08:53:19 51°15.515 2°48.482 290.3 13.1 290 11.9
2007-03-27 08:54:19 51°15.578 2°48.15 288.1 13.2 285 12.5
2007-03-27 08:55:19 51°15.627 2°47.812 283.2 13.1 280 13.9
2007-03-27 08:56:19 51°15.661 2°47.471 280.1 12.9 278 15.6
2007-03-27 08:57:19 51°15.691 2°47.131 279.9 12.9 278 16.6
2007-03-27 08:58:19 51°15.721 2°46.793 279.7 12.8 279 17.7
2007-03-27 08:59:19 51°15.749 2°46.455 279.7 12.8 277 18.3
2007-03-27 09:00:19 51°15.823 2°46.135 298.9 13.1 298 17.9
2007-03-27 09:01:19 51°15.934 2°45.836 302.3 13.1 301 14.6
2007-03-27 09:02:19 51°16.046 2°45.538 301.9 13.1 301 12
2007-03-27 09:03:19 51°16.164 2°45.243 305.4 13.2 305 12.2
2007-03-27 09:04:19 51°16.294 2°44.957 307 13.3 307 12
2007-03-27 09:05:19 51°16.424 2°44.67 306.8 13.4 306 12.8
2007-03-27 09:06:19 51°16.56 2°44.386 310.5 13.4 309 14.2
2007-03-27 09:07:19 51°16.702 2°44.11 310.6 13.4 309 16.2
2007-03-27 09:08:19 51°16.839 2°43.833 311 13.4 308 16.2
2007-03-27 09:09:19 51°16.975 2°43.56 310.8 13.1 308 15.2
2007-03-27 09:10:19 51°17.111 2°43.286 310.2 13.2 309 12.9
2007-03-27 09:11:19 51°17.247 2°43.009 310.9 13.3 308 13
2007-03-27 09:12:19 51°17.383 2°42.732 310.4 13.5 308 13.1
2007-03-27 09:13:19 51°17.526 2°42.458 310.2 13.4 310 23.8
2007-03-27 09:14:19 51°17.67 2°42.183 310.3 13.6 310 25.1
2007-03-27 09:15:19 51°17.814 2°41.908 309.9 13.5 309 25.4
2007-03-27 09:16:19 51°17.959 2°41.63 310.8 13.6 310 24.8
2007-03-27 09:17:19 51°18.098 2°41.345 309.6 13.6 307 23.5
2007-03-27 09:18:19 51°18.236 2°41.065 310.9 13.3 309 20.8
2007-03-27 09:19:19 51°18.375 2°40.791 310.6 13.1 309 18
2007-03-27 09:20:19 51°18.513 2°40.516 310.4 13.2 308 19
2007-03-27 09:21:19 51°18.652 2°40.243 309.9 13.4 309 23.5
2007-03-27 09:22:19 51°18.793 2°39.967 310.6 13.5 309 25.1
2007-03-27 09:23:19 51°18.936 2°39.692 309.7 13.4 308 25.3
2007-03-27 09:24:19 51°19.081 2°39.418 309.9 13.5 309 27.6
2007-03-27 09:25:19 51°19.224 2°39.142 310 13.4 310 29.9
2007-03-27 09:26:19 51°19.368 2°38.869 310.7 13.5 311 29.4
2007-03-27 09:27:19 51°19.514 2°38.593 309.8 13.7 311 26.5
2007-03-27 09:28:19 51°19.664 2°38.328 317.5 13.3 315 23.8
2007-03-27 09:29:19 51°19.823 2°38.077 316.4 13.5 315 23.7
2007-03-27 09:30:19 51°19.98 2°37.824 315 13.3 314 23.9
2007-03-27 09:31:19 51°20.125 2°37.559 310.1 13.3 307 23.5
2007-03-27 09:32:19 51°20.221 2°37.345 283.9 6 281 24
2007-03-27 09:33:19 51°20.199 2°37.238 244.4 4 245 22.2
2007-03-27 09:34:19 51°20.169 2°37.148 238 3.8 241 23.5
2007-03-27 09:35:19 51°20.143 2°37.059 238 3.6 238 23
2007-03-27 09:36:19 51°20.119 2°36.988 247.1 2.5 245 22
2007-03-27 09:37:19 51°20.102 2°36.938 245.4 2 252 28.2
2007-03-27 09:38:19 51°20.091 2°36.9 232.5 1.1 231 18.9
2007-03-27 09:39:21 51°20.077 2°36.884 210.1 1 192 24.3
2007-03-27 09:40:20 51°20.061 2°36.887 180.7 1.1 153 24.6
2007-03-27 09:41:19 51°20.047 2°36.909 153.6 1.3 126 24.3
2007-03-27 09:42:19 51°20.038 2°36.937 142.5 1 111 23.8
2007-03-27 09:43:19 51°20.033 2°36.959 143.3 0.7 113 23.7
2007-03-27 09:44:19 51°20.03 2°36.978 145 0.7 104 23.3
2007-03-27 09:45:19 51°20.028 2°36.993 146.3 0.6 99 22.9
2007-03-27 09:46:19 51°20.027 2°37.005 148.1 0.4 90 22.5
2007-03-27 09:47:19 51°20.027 2°37.015 150.5 0.3 89 22.4
2007-03-27 09:48:19 51°20.028 2°37.023 152.4 0.3 69 22.1
2007-03-27 09:49:19 51°20.03 2°37.029 154.7 0.2 72 21.1
2007-03-27 09:50:19 51°20.032 2°37.034 156.9 0.2 49 21.5
2007-03-27 09:51:19 51°20.035 2°37.038 160.5 0.2 34 21.8
2007-03-27 09:52:19 51°20.035 2°37.043 172.3 0.5 155 22.2
2007-03-27 09:53:19 51°20.02 2°37.047 198.9 1.3 188 21.8
2007-03-27 09:54:19 51°20.001 2°37.026 237.7 1.6 240 22.3
2007-03-27 09:55:19 51°20 2°36.986 275.7 1.6 291 22.8
2007-03-27 09:56:19 51°20.013 2°36.956 300.6 1.4 318 23.2
2007-03-27 09:57:19 51°20.03 2°36.938 309.1 1.2 334 23.5
2007-03-27 09:58:19 51°20.045 2°36.925 313.8 1 335 24.2
2007-03-27 09:59:19 51°20.059 2°36.918 319.4 0.8 340 24.8
2007-03-27 10:00:19 51°20.069 2°36.917 328.8 0.4 19 25.2
2007-03-27 10:01:19 51°20.074 2°36.919 335.4 0.3 23 26.1
2007-03-27 10:02:19 51°20.08 2°36.921 338.1 0.3 19 26.5
2007-03-27 10:03:19 51°20.086 2°36.922 338.6 0.3 9 26.3
2007-03-27 10:04:19 51°20.089 2°36.922 340.4 0.2 14 24.4
2007-03-27 10:05:19 51°20.09 2°36.925 339.6 0.2 51 25.1
2007-03-27 10:06:19 51°20.091 2°36.927 335.6 0.1 63 25.2
2007-03-27 10:07:19 51°20.088 2°36.934 330.4 0.7 144 25.7
2007-03-27 10:08:22 51°20.07 2°36.965 313.9 1.1 120 24.1
2007-03-27 10:09:20 51°20.067 2°36.984 299.5 0.5 91 23.4
2007-03-27 10:10:19 51°20.067 2°36.996 298.5 0.5 80 22.2
2007-03-27 10:11:19 51°20.068 2°37.007 296.8 0.5 65 21.1
2007-03-27 10:12:19 51°20.069 2°37.017 292.3 0.3 73 21.9
2007-03-27 10:13:19 51°20.07 2°37.024 291.8 0.2 123 22.3
2007-03-27 10:14:19 51°20.072 2°37.029 293.9 0.2 47 22.2
2007-03-27 10:15:19 51°20.074 2°37.032 300.8 0.2 45 22
2007-03-27 10:16:19 51°20.077 2°37.033 309.5 0.1 350 21.5
2007-03-27 10:17:19 51°20.08 2°37.034 315.5 0.2 6 20.4
2007-03-27 10:18:19 51°20.083 2°37.034 323.2 0.2 336 20.6
2007-03-27 10:19:19 51°20.086 2°37.035 329.4 0.3 46 20.7
2007-03-27 10:20:19 51°20.089 2°37.035 333 0.1 36 20.9
2007-03-27 10:21:19 51°20.09 2°37.034 335.2 0.1 285 21.1
2007-03-27 10:22:20 51°20.092 2°37.033 336.6 -999 8 -999
2007-03-27 10:23:19 51°20.092 2°37.031 336.1 0.1 274 21.3
2007-03-27 10:24:19 51°20.092 2°37.029 335.1 0.1 202 21
2007-03-27 10:25:19 51°20.091 2°37.028 328.8 0.1 157 20.9
2007-03-27 10:26:19 51°20.089 2°37.028 322.3 0.1 124 20.5
2007-03-27 10:27:19 51°20.088 2°37.029 317.1 0.1 85 20.4
2007-03-27 10:28:19 51°20.087 2°37.029 314.4 -999 150 20.5
2007-03-27 10:29:19 51°20.085 2°37.03 312.7 0.1 169 20.4
2007-03-27 10:30:19 51°20.085 2°37.03 311.4 0.1 200 20.4
2007-03-27 10:31:19 51°20.083 2°37.03 310.4 0.1 211 20.4
2007-03-27 10:32:19 51°20.082 2°37.03 310.2 0.1 176 20.3
2007-03-27 10:33:19 51°20.081 2°37.029 309.5 0.1 192 21
2007-03-27 10:34:19 51°20.079 2°37.028 309.9 0.2 193 21.5
2007-03-27 10:35:19 51°20.077 2°37.026 309.6 0.1 216 21.9
2007-03-27 10:36:19 51°20.075 2°37.024 308.8 0.1 209 21.9
2007-03-27 10:37:19 51°20.073 2°37.023 305.8 0.1 210 21.9
2007-03-27 10:38:19 51°20.073 2°37.022 304.4 -999 233 22.1
2007-03-27 10:39:19 51°20.071 2°37.019 304.2 0.1 229 22
2007-03-27 10:40:19 51°20.07 2°37.017 304.3 0.1 216 21.7
2007-03-27 10:41:19 51°20.068 2°37.014 306.1 0.1 236 21.4
2007-03-27 10:42:19 51°20.066 2°37.012 307.8 0.1 228 21.1
2007-03-27 10:43:19 51°20.065 2°37.01 309.5 0.2 254 21
2007-03-27 10:44:19 51°20.063 2°37.006 312.8 0.1 263 20.8
2007-03-27 10:45:19 51°20.062 2°37.003 315.1 0.2 235 21.5
2007-03-27 10:46:19 51°20.059 2°36.999 318.5 0.2 232 21.6
2007-03-27 10:47:19 51°20.056 2°36.995 322.1 0.2 217 22.3
2007-03-27 10:48:19 51°20.052 2°36.989 322.1 0.3 218 22.4
2007-03-27 10:49:19 51°20.049 2°36.984 321 0.3 208 23
2007-03-27 10:50:19 51°20.044 2°36.978 317.1 0.4 224 23
2007-03-27 10:51:19 51°20.04 2°36.973 312.1 0.4 223 23.1
2007-03-27 10:52:19 51°20.036 2°36.967 309.8 0.3 244 22.9
2007-03-27 10:53:19 51°20.031 2°36.96 308.4 0.4 232 22.9
2007-03-27 10:54:19 51°20.027 2°36.952 306.7 0.4 234 22.8
2007-03-27 10:55:19 51°20.023 2°36.944 306.3 0.4 236 22.7
2007-03-27 10:56:19 51°20.02 2°36.936 307.8 0.4 242 22.7
2007-03-27 10:57:19 51°20.016 2°36.927 308.7 0.4 244 22.4
2007-03-27 10:58:19 51°20.013 2°36.918 309.6 0.4 245 22.4
2007-03-27 10:59:19 51°20.009 2°36.908 312 0.4 250 22.4
2007-03-27 11:00:19 51°20.006 2°36.899 312.6 0.4 236 22.2
2007-03-27 11:01:19 51°20.002 2°36.89 313.9 0.4 236 22.1
2007-03-27 11:02:19 51°19.998 2°36.882 314.3 0.4 230 22.1
2007-03-27 11:03:19 51°19.994 2°36.873 314.2 0.4 238 22.3
2007-03-27 11:04:19 51°19.99 2°36.864 313.3 0.5 228 -999
2007-03-27 11:05:19 51°19.985 2°36.854 313.4 0.5 235 22.2
2007-03-27 11:06:19 51°19.981 2°36.845 314.6 0.6 233 22
2007-03-27 11:07:19 51°19.976 2°36.834 316.3 0.5 240 21.3
2007-03-27 11:08:19 51°19.971 2°36.824 315.7 0.5 232 20.7
2007-03-27 11:09:19 51°19.966 2°36.814 314.4 0.4 238 21.9
2007-03-27 11:10:19 51°19.961 2°36.803 313.3 0.5 235 21.9
2007-03-27 11:11:19 51°19.968 2°36.779 334.4 2 323 21.9
2007-03-27 11:12:19 51°20.004 2°36.771 24.7 2.1 14 22.2
2007-03-27 11:13:19 51°20.029 2°36.783 36 1.3 17 21.3
2007-03-27 11:14:19 51°20.045 2°36.792 38 0.8 16 21.7
2007-03-27 11:15:19 51°20.056 2°36.793 34.5 0.6 358 21.8
2007-03-27 11:16:19 51°20.064 2°36.789 29.6 0.4 323 22
2007-03-27 11:17:19 51°20.067 2°36.778 24.3 0.4 280 21.7
2007-03-27 11:18:19 51°20.066 2°36.764 13 0.6 258 21.6
2007-03-27 11:19:19 51°20.064 2°36.75 359.6 0.6 256 22.4
2007-03-27 11:20:19 51°20.062 2°36.736 347.8 0.6 247 22.1
2007-03-27 11:21:19 51°20.058 2°36.722 337.5 0.6 247 22.3
2007-03-27 11:22:19 51°20.054 2°36.707 325.8 0.6 241 21.7
2007-03-27 11:23:19 51°20.049 2°36.693 319.5 0.7 237 21.3
2007-03-27 11:24:19 51°20.044 2°36.68 314.2 0.6 241 20.5
2007-03-27 11:25:19 51°20.039 2°36.666 310.4 0.5 247 22.2
2007-03-27 11:26:19 51°20.034 2°36.652 307.9 0.6 236 22.1
2007-03-27 11:27:19 51°20.028 2°36.639 309 0.6 238 22.1
2007-03-27 11:28:19 51°20.022 2°36.625 308.4 0.7 232 22.4
2007-03-27 11:29:19 51°20.017 2°36.611 308.2 0.7 240 22.6
2007-03-27 11:30:19 51°20.011 2°36.597 308.1 0.6 239 22.5
2007-03-27 11:31:19 51°20.005 2°36.582 311 0.7 235 22.2
2007-03-27 11:32:19 51°19.999 2°36.568 312.7 0.7 236 21.6
2007-03-27 11:33:19 51°19.993 2°36.555 312.7 0.7 231 20.5
2007-03-27 11:34:19 51°19.987 2°36.539 313.5 0.6 239 20.6
2007-03-27 11:35:19 51°19.987 2°36.513 314.4 1.7 292 21.5
2007-03-27 11:36:19 51°20.009 2°36.454 319.9 3.2 307 21.9
2007-03-27 11:37:19 51°20.049 2°36.378 319.2 3.9 309 21.8
2007-03-27 11:38:19 51°20.084 2°36.314 323.7 2.7 312 21.5
2007-03-27 11:39:19 51°20.108 2°36.267 327.1 2 309 21.1
2007-03-27 11:40:19 51°20.126 2°36.23 330.3 1.5 308 20.6
2007-03-27 11:41:19 51°20.137 2°36.2 334 1.2 298 20.5
2007-03-27 11:42:19 51°20.144 2°36.175 338 0.9 289 20.8
2007-03-27 11:43:19 51°20.154 2°36.151 344.7 2.4 330 20.7
2007-03-27 11:44:19 51°20.222 2°36.18 49.3 5.2 53 20
2007-03-27 11:45:19 51°20.193 2°36.302 137.9 6.4 136 21
2007-03-27 11:46:19 51°20.111 2°36.448 127.4 7.9 128 20.6
2007-03-27 11:47:19 51°20.021 2°36.585 128.6 5.8 126 22.1
2007-03-27 11:48:19 51°20.007 2°36.684 76.3 3.2 74 21.4
2007-03-27 11:49:19 51°20.032 2°36.743 51.2 2.5 43 20.6
2007-03-27 11:50:19 51°20.06 2°36.788 56.3 2.3 51 21.5
2007-03-27 11:51:19 51°20.087 2°36.834 53.5 2.7 43 22.7
2007-03-27 11:52:19 51°20.109 2°36.851 12.1 1.4 203 21.5
2007-03-27 11:53:23 51°20.093 2°36.834 345.5 1.3 300 22.7
2007-03-27 11:54:22 51°20.099 2°36.811 313.4 0.5 217 22.7
2007-03-27 11:55:23 51°20.084 2°36.821 301.7 0.6 170 -999
2007-03-27 11:56:21 51°20.075 2°36.824 290.4 0.6 169 22.3
2007-03-27 11:57:19 51°20.066 2°36.824 286.2 0.5 188 21.7
2007-03-27 11:58:19 51°20.058 2°36.824 283.2 0.4 154 21.6
2007-03-27 11:59:19 51°20.051 2°36.834 273.9 0.6 129 21.9
2007-03-27 12:00:19 51°20.046 2°36.845 266.7 0.5 125 22.3
2007-03-27 12:01:19 51°20.043 2°36.853 260.9 0.3 119 22.4
2007-03-27 12:02:19 51°20.042 2°36.858 258.6 0.2 115 22.4
2007-03-27 12:03:19 51°20.041 2°36.863 255.4 0.2 97 22.3
2007-03-27 12:04:19 51°20.041 2°36.867 252.7 0.1 85 22.3
2007-03-27 12:05:19 51°20.04 2°36.867 251.6 -999 305 22.5
2007-03-27 12:06:19 51°20.041 2°36.866 252.6 0.1 328 22.4
2007-03-27 12:07:19 51°20.042 2°36.865 254.5 0.1 13 22.5
2007-03-27 12:08:19 51°20.043 2°36.865 256.2 -999 27 22.7
2007-03-27 12:09:19 51°20.044 2°36.865 259.5 -999 322 22.7
2007-03-27 12:10:19 51°20.044 2°36.866 260.3 0.1 63 22.8
2007-03-27 12:11:19 51°20.044 2°36.867 257.3 0.1 98 22.8
2007-03-27 12:12:19 51°20.043 2°36.869 254.6 0.1 129 22.8
2007-03-27 12:13:19 51°20.043 2°36.87 252.4 0.1 13 22.6
2007-03-27 12:14:19 51°20.043 2°36.87 250.4 -999 28 22.5
2007-03-27 12:15:19 51°20.045 2°36.869 250.5 0.1 333 22.5
2007-03-27 12:16:19 51°20.045 2°36.867 248 0.2 298 22.6
2007-03-27 12:17:19 51°20.047 2°36.864 246.5 0.2 302 22.5
2007-03-27 12:18:19 51°20.049 2°36.86 247.9 0.2 319 22.7
2007-03-27 12:19:19 51°20.051 2°36.857 252.5 0.1 322 22.5
2007-03-27 12:20:19 51°20.053 2°36.856 256.7 0.1 6 22.4
2007-03-27 12:21:19 51°20.054 2°36.863 256.4 0.5 79 4.7
2007-03-27 12:22:19 51°20.056 2°36.875 248.9 0.4 60 23.4
2007-03-27 12:23:19 51°20.058 2°36.88 243.1 0.3 14 23.4
2007-03-27 12:24:19 51°20.061 2°36.881 239.2 0.2 2 23.2
2007-03-27 12:25:19 51°20.065 2°36.877 236.4 0.3 309 22.9
2007-03-27 12:26:19 51°20.068 2°36.872 236.8 0.2 307 22.5
2007-03-27 12:27:19 51°20.071 2°36.867 238.3 0.3 2 22.3
2007-03-27 12:28:23 51°20.079 2°36.882 248.6 0.4 68 -999
2007-03-27 12:29:21 51°20.082 2°36.888 249.1 0.2 64 22.6
2007-03-27 12:30:19 51°20.083 2°36.89 246 0.1 304 22.5
2007-03-27 12:31:19 51°20.084 2°36.887 241.9 0.1 276 22.2
2007-03-27 12:32:19 51°20.085 2°36.883 241.7 0.1 345 21.9
2007-03-27 12:33:19 51°20.086 2°36.882 245.2 0.1 325 22
2007-03-27 12:34:19 51°20.087 2°36.882 247.7 -999 131 22.2
2007-03-27 12:35:19 51°20.087 2°36.884 246.2 -999 176 22
2007-03-27 12:36:19 51°20.086 2°36.884 247.3 0.1 269 22
2007-03-27 12:37:19 51°20.086 2°36.885 249.2 0.1 36 22
2007-03-27 12:38:19 51°20.086 2°36.886 249.8 0.2 134 21.9
2007-03-27 12:39:19 51°20.085 2°36.887 246.5 0.1 141 22
2007-03-27 12:40:19 51°20.087 2°36.893 246 0.9 63 21.8
2007-03-27 12:41:23 51°20.094 2°36.916 242.6 0.4 34 21.8
2007-03-27 12:42:21 51°20.097 2°36.918 237 -999 300 21.4
2007-03-27 12:43:19 51°20.097 2°36.912 232.3 0.4 255 21.3
2007-03-27 12:44:19 51°20.093 2°36.896 229.8 1.1 253 20.2
2007-03-27 12:45:19 51°20.088 2°36.874 239.7 0.8 251 22.6
2007-03-27 12:46:19 51°20.087 2°36.864 247 0.3 254 22.7
2007-03-27 12:47:19 51°20.083 2°36.854 250.8 0.4 234 5
2007-03-27 12:48:19 51°20.078 2°36.837 253 0.8 247 22.2
2007-03-27 12:49:20 51°20.077 2°36.84 253.2 0.6 76 -999
2007-03-27 12:50:22 51°20.079 2°36.85 248.5 0.2 96 22.1
2007-03-27 12:51:20 51°20.08 2°36.853 247.4 0.1 73 21.9
2007-03-27 12:52:20 51°20.083 2°36.864 243.6 0.4 84 4.8
2007-03-27 12:53:19 51°20.085 2°36.866 240.2 0.2 328 22.6
2007-03-27 12:54:19 51°20.088 2°36.871 242.1 0.3 51 4.7
2007-03-27 12:55:19 51°20.091 2°36.873 242.6 0.1 349 22.4
2007-03-27 12:56:19 51°20.092 2°36.873 246 -999 253 22.2
2007-03-27 12:57:19 51°20.09 2°36.87 247.5 0.3 226 22.4
2007-03-27 12:58:19 51°20.085 2°36.86 247.6 0.8 232 22.6
2007-03-27 12:59:19 51°20.077 2°36.836 260.5 1.1 243 22.5
2007-03-27 13:00:19 51°20.069 2°36.809 268.5 1.2 238 21.7
2007-03-27 13:01:19 51°20.061 2°36.78 277.3 1.2 244 20.9
2007-03-27 13:02:19 51°20.055 2°36.746 294.8 1.8 264 21.5
2007-03-27 13:03:19 51°20.063 2°36.696 329.6 2.3 302 21.2
2007-03-27 13:04:19 51°20.103 2°36.676 30.4 2.6 16 22.1
2007-03-27 13:05:19 51°20.121 2°36.722 88 1.5 97 22
2007-03-27 13:06:19 51°20.107 2°36.752 121 1.3 148 21.6
2007-03-27 13:07:19 51°20.089 2°36.765 112.2 0.9 157 20.8
2007-03-27 13:08:19 51°20.075 2°36.769 112.6 0.8 182 20.9
2007-03-27 13:09:19 51°20.062 2°36.764 113.6 0.8 200 21.4
2007-03-27 13:10:19 51°20.049 2°36.755 113.8 0.8 210 21.3
2007-03-27 13:11:19 51°20.036 2°36.743 115 0.9 205 20.6
2007-03-27 13:12:19 51°20.024 2°36.749 89.2 0.8 122 19.9
2007-03-27 13:13:19 51°20.025 2°36.777 71.1 1.4 72 20.5
2007-03-27 13:14:19 51°20.043 2°36.807 36.1 2.1 13 21.3
2007-03-27 13:15:19 51°20.064 2°36.795 359.6 1.3 308 21.5
2007-03-27 13:16:19 51°20.073 2°36.762 341.8 1.5 282 21.4
2007-03-27 13:17:19 51°20.075 2°36.724 335.8 1.4 272 21.8
2007-03-27 13:18:19 51°20.076 2°36.686 337.3 1.4 271 21.7
2007-03-27 13:19:19 51°20.073 2°36.649 338.3 1.4 259 21
2007-03-27 13:20:19 51°20.071 2°36.613 343.1 1.7 296 21.6
2007-03-27 13:21:19 51°20.108 2°36.617 55.1 3 53 21.4
2007-03-27 13:22:19 51°20.088 2°36.719 115.1 6.8 117 21.8
2007-03-27 13:23:19 51°20.02 2°36.976 112 12.7 113 21.7
2007-03-27 13:24:19 51°19.881 2°37.241 138.8 13.4 143 21.9
2007-03-27 13:25:19 51°19.676 2°37.391 160.9 13.8 160 20.6
2007-03-27 13:26:19 51°19.459 2°37.512 159 13.7 160 20.1
2007-03-27 13:27:19 51°19.243 2°37.633 159.5 13.6 158 20.5
2007-03-27 13:28:19 51°19.026 2°37.764 156.8 13.9 160 21.8
2007-03-27 13:29:19 51°18.81 2°37.897 158.9 14 158 22.6
2007-03-27 13:30:19 51°18.594 2°38.032 158.4 13.9 160 25.5
2007-03-27 13:31:19 51°18.379 2°38.168 157.4 13.8 158 26
2007-03-27 13:32:19 51°18.163 2°38.302 157.6 13.8 161 26
2007-03-27 13:33:19 51°17.948 2°38.442 156.3 13.9 156 26.4
2007-03-27 13:34:19 51°17.73 2°38.576 158.2 14.1 158 26.6
2007-03-27 13:35:19 51°17.513 2°38.711 157.4 14 156 26.4
2007-03-27 13:36:19 51°17.3 2°38.842 157.5 13.8 159 21.5
2007-03-27 13:37:19 51°17.092 2°38.972 156.6 12.6 159 8.7
2007-03-27 13:38:19 51°16.89 2°39.104 156 13.3 156 10
2007-03-27 13:39:19 51°16.681 2°39.244 156.5 13.6 156 12.2
2007-03-27 13:40:19 51°16.468 2°39.371 156.2 13.6 159 16
2007-03-27 13:41:19 51°16.254 2°39.501 157.6 13.7 158 18.6
2007-03-27 13:42:19 51°16.038 2°39.632 158.7 13.9 160 19.6
2007-03-27 13:43:19 51°15.819 2°39.766 157.8 14.2 160 19.3
2007-03-27 13:44:19 51°15.601 2°39.902 157.4 14.2 158 18.1
2007-03-27 13:45:19 51°15.381 2°40.038 157.4 14.1 157 16
2007-03-27 13:46:19 51°15.171 2°40.196 151.6 13.9 154 12.7
2007-03-27 13:47:19 51°14.964 2°40.357 152.7 13.8 155 12.2
2007-03-27 13:48:19 51°14.777 2°40.556 141.5 13.4 140 11.9
2007-03-27 13:49:19 51°14.651 2°40.831 114.3 12.9 115 12.5
2007-03-27 13:50:19 51°14.571 2°41.147 109.5 12.8 110 12.7
2007-03-27 13:51:19 51°14.528 2°41.478 98.4 12.7 98 13.6
2007-03-27 13:52:19 51°14.514 2°41.813 94.8 12.7 93 13.7
2007-03-27 13:53:19 51°14.451 2°42.135 115 13 118 16.2
2007-03-27 13:54:19 51°14.337 2°42.431 119.5 13 120 16.6
2007-03-27 13:55:19 51°14.239 2°42.736 111.8 12.8 110 16.2
2007-03-27 13:56:19 51°14.223 2°43.062 85.3 12.3 84 15.5
2007-03-27 13:57:19 51°14.258 2°43.386 82 12.4 80 15.3
2007-03-27 13:58:19 51°14.29 2°43.71 82.7 12.4 82 14.5
2007-03-27 13:59:19 51°14.328 2°44.031 80.1 12.4 77 13.5
2007-03-27 14:00:19 51°14.362 2°44.356 83.2 12.4 82 12.1
2007-03-27 14:01:19 51°14.392 2°44.682 83.7 12.4 81 10.7
2007-03-27 14:02:19 51°14.421 2°45.007 83.4 12.3 82 8.8
2007-03-27 14:03:19 51°14.451 2°45.327 84.2 12.1 82 5.4
2007-03-27 14:04:19 51°14.478 2°45.647 84.4 12.5 84 8.2
2007-03-27 14:05:19 51°14.494 2°45.986 86.1 13 84 10.7
2007-03-27 14:06:19 51°14.516 2°46.323 85.4 12.7 83 12.3
2007-03-27 14:07:19 51°14.537 2°46.652 85.1 12.4 84 12.4
2007-03-27 14:08:19 51°14.558 2°46.979 85.3 12.4 85 12.1
2007-03-27 14:09:19 51°14.58 2°47.304 85.5 12.3 85 11.2
2007-03-27 14:10:19 51°14.601 2°47.629 85.2 12.2 84 10.2
2007-03-27 14:11:19 51°14.621 2°47.955 85.3 12.4 84 10.5
2007-03-27 14:12:19 51°14.642 2°48.283 85.3 12.4 85 11.4
2007-03-27 14:13:19 51°14.662 2°48.611 85.5 12.4 84 11.7
2007-03-27 14:14:19 51°14.681 2°48.94 85.3 12.5 84 11.9
2007-03-27 14:15:19 51°14.702 2°49.267 85.2 12.4 85 12
2007-03-27 14:16:19 51°14.72 2°49.594 85 12.4 85 11.9
2007-03-27 14:17:19 51°14.74 2°49.923 84.6 12.4 85 11.6
2007-03-27 14:18:19 51°14.759 2°50.25 85.1 12.3 84 11.5
2007-03-27 14:19:19 51°14.775 2°50.575 87.5 12.3 87 11.3
2007-03-27 14:20:19 51°14.781 2°50.903 88.3 12.3 88 10.9
2007-03-27 14:21:19 51°14.788 2°51.228 88.4 12.3 87 10.6
2007-03-27 14:22:19 51°14.794 2°51.554 88.2 12.3 87 10.2
2007-03-27 14:23:19 51°14.8 2°51.88 88.1 12.2 89 9.8
2007-03-27 14:24:19 51°14.806 2°52.207 88.1 12.3 88 9.4
2007-03-27 14:25:19 51°14.813 2°52.534 87.9 12.3 88 9.2
2007-03-27 14:26:19 51°14.82 2°52.863 88.5 12.4 88 9.1
2007-03-27 14:27:19 51°14.829 2°53.199 87.5 12.9 87 10.5
2007-03-27 14:28:19 51°14.818 2°53.539 99.4 12.9 100 10.4
2007-03-27 14:29:19 51°14.751 2°53.859 111.4 12.4 113 9.9
2007-03-27 14:30:19 51°14.676 2°54.155 113.1 11.5 113 10
2007-03-27 14:31:19 51°14.583 2°54.418 118.1 11.3 122 10.3
2007-03-27 14:32:19 51°14.493 2°54.68 117.5 11.3 119 10.5
2007-03-27 14:33:19 51°14.4 2°54.94 120.1 11.3 121 10.2
2007-03-27 14:34:19 51°14.304 2°55.201 128.4 11.4 126 10.7
2007-03-27 14:35:23 51°14.16 2°55.388 153.4 9.3 154 10.7
2007-03-27 14:36:22 51°14.034 2°55.479 158.2 7.4 156 10.6
2007-03-27 14:37:20 51°13.938 2°55.546 157.1 6.1 154 10.7
2007-03-27 14:38:19 51°13.854 2°55.616 149.5 5.8 147 10.7
2007-03-27 14:39:19 51°13.737 2°55.756 142.9 9 138 11.4
2007-03-27 14:40:19 51°13.664 2°55.895 126 5.2 123 10.1
2007-03-27 14:41:19 51°13.627 2°55.99 124.1 3.5 120 10.2
2007-03-27 14:42:19 51°13.607 2°56.065 111.7 2.8 107 8.4
2007-03-27 14:43:19 51°13.602 2°56.098 113.5 0.4 120 4.9